createdAt,value
2022-11-13T00:01:22.313Z,78.57
2022-11-13T00:04:08.358Z,50.07
2022-11-13T00:06:59.150Z,76.63
2022-11-13T00:09:45.844Z,82.70
2022-11-13T00:12:32.242Z,79.97
2022-11-13T00:15:18.244Z,88.10
2022-11-13T00:18:04.862Z,57.97
2022-11-13T00:20:50.933Z,103.87
2022-11-13T00:23:37.921Z,139.13
2022-11-13T00:26:25.680Z,139.63
2022-11-13T00:29:12.056Z,130.27
2022-11-13T00:31:58.219Z,80.03
2022-11-13T00:34:48.534Z,103.47
2022-11-13T00:37:34.963Z,79.60
2022-11-13T00:40:21.554Z,92.97
2022-11-13T00:43:07.548Z,75.30
2022-11-13T00:45:54.342Z,62.57
2022-11-13T00:48:40.443Z,72.40
2022-11-13T00:51:27.101Z,70.67
2022-11-13T00:54:12.990Z,74.27
2022-11-13T00:56:59.638Z,69.93
2022-11-13T00:59:45.849Z,50.87
2022-11-13T01:02:32.558Z,59.37
2022-11-13T01:05:18.787Z,60.07
2022-11-13T01:08:05.524Z,55.03
2022-11-13T01:10:53.705Z,51.50
2022-11-13T01:13:41.304Z,66.47
2022-11-13T01:16:28.272Z,57.23
2022-11-13T01:19:14.734Z,69.57
2022-11-13T01:22:01.030Z,55.57
2022-11-13T01:24:47.609Z,52.83
2022-11-13T01:27:36.142Z,51.60
2022-11-13T01:30:22.683Z,58.93
2022-11-13T01:33:09.007Z,63.27
2022-11-13T01:36:00.282Z,48.80
2022-11-13T01:38:46.247Z,145.33
2022-11-13T01:41:33.684Z,199.53
2022-11-13T01:44:20.218Z,175.67
2022-11-13T01:47:06.389Z,143.50
2022-11-13T01:49:53.878Z,121.47
2022-11-13T01:52:40.997Z,64.13
2022-11-13T01:55:27.352Z,54.67
2022-11-13T01:58:13.940Z,54.53
2022-11-13T02:01:00.147Z,54.03
2022-11-13T02:03:46.457Z,56.90
2022-11-13T02:06:44.705Z,52.53
2022-11-13T02:09:34.419Z,56.77
2022-11-13T02:12:30.752Z,64.97
2022-11-13T02:15:17.684Z,55.70
2022-11-13T02:18:04.573Z,56.80
2022-11-13T02:20:56.281Z,63.27
2022-11-13T02:23:56.906Z,53.38
2022-11-13T02:26:43.720Z,65.43
2022-11-13T02:29:29.771Z,62.97
2022-11-13T02:32:16.470Z,72.23
2022-11-13T02:35:02.344Z,61.07
2022-11-13T02:37:49.006Z,67.43
2022-11-13T02:40:36.458Z,86.30
2022-11-13T02:43:22.992Z,64.70
2022-11-13T02:46:08.960Z,74.47
2022-11-13T02:48:55.583Z,75.17
2022-11-13T02:51:42.785Z,75.80
2022-11-13T02:54:29.175Z,97.90
2022-11-13T02:57:15.385Z,84.03
2022-11-13T03:00:01.694Z,86.33
2022-11-13T03:02:47.822Z,77.40
2022-11-13T03:05:40.288Z,76.40
2022-11-13T03:11:13.164Z,112.30
2022-11-13T03:13:59.079Z,122.17
2022-11-13T03:16:45.728Z,176.70
2022-11-13T03:19:31.830Z,214.10
2022-11-13T03:22:18.349Z,191.70
2022-11-13T03:25:09.835Z,204.60
2022-11-13T03:27:57.210Z,203.20
2022-11-13T03:30:43.118Z,257.10
2022-11-13T03:33:29.679Z,383.37
2022-11-13T03:36:15.767Z,271.33
2022-11-13T03:39:02.269Z,371.60
2022-11-13T03:41:48.380Z,294.33
2022-11-13T03:44:34.813Z,417.63
2022-11-13T03:47:21.054Z,280.77
2022-11-13T03:50:07.255Z,232.87
2022-11-13T03:52:53.884Z,223.70
2022-11-13T03:55:41.694Z,237.00
2022-11-13T03:58:28.208Z,343.93
2022-11-13T04:01:15.031Z,353.00
2022-11-13T04:04:01.383Z,271.93
2022-11-13T04:06:48.082Z,425.10
2022-11-13T04:09:34.240Z,392.30
2022-11-13T04:12:20.926Z,261.37
2022-11-13T04:15:07.510Z,230.73
2022-11-13T04:17:53.921Z,210.30
2022-11-13T04:20:39.938Z,197.37
2022-11-13T04:23:27.482Z,234.10
2022-11-13T04:26:13.561Z,200.70
2022-11-13T04:29:00.167Z,218.23
2022-11-13T04:31:46.565Z,203.87
2022-11-13T04:34:32.860Z,222.83
2022-11-13T04:37:18.766Z,197.97
2022-11-13T04:40:05.949Z,217.83
2022-11-13T04:42:51.969Z,239.63
2022-11-13T04:45:38.367Z,203.53
2022-11-13T04:48:25.802Z,231.30
2022-11-13T04:51:13.474Z,199.97
2022-11-13T04:53:59.515Z,193.70
2022-11-13T04:56:46.137Z,199.10
2022-11-13T04:59:31.981Z,210.57
2022-11-13T05:02:18.618Z,209.17
2022-11-13T05:05:05.597Z,221.20
2022-11-13T05:07:53.127Z,223.77
2022-11-13T05:10:39.248Z,199.60
2022-11-13T05:13:26.021Z,185.70
2022-11-13T05:16:13.671Z,198.30
2022-11-13T05:19:00.038Z,177.43
2022-11-13T05:21:46.190Z,170.77
2022-11-13T05:24:32.929Z,168.67
2022-11-13T05:27:19.122Z,147.63
2022-11-13T05:30:05.933Z,160.80
2022-11-13T05:32:53.111Z,156.00
2022-11-13T05:35:39.290Z,165.23
2022-11-13T05:38:25.551Z,162.80
2022-11-13T05:41:17.088Z,179.83
2022-11-13T05:44:03.272Z,172.33
2022-11-13T05:46:49.886Z,151.20
2022-11-13T05:49:35.970Z,161.10
2022-11-13T05:52:22.652Z,157.83
2022-11-13T05:55:09.055Z,167.40
2022-11-13T05:57:55.513Z,173.37
2022-11-13T06:00:41.512Z,179.03
2022-11-13T06:03:28.044Z,151.83
2022-11-13T06:06:15.720Z,173.83
2022-11-13T06:09:03.469Z,154.33
2022-11-13T06:11:49.477Z,164.37
2022-11-13T06:14:36.020Z,173.90
2022-11-13T06:17:21.991Z,160.37
2022-11-13T06:20:08.906Z,193.90
2022-11-13T06:22:55.273Z,164.07
2022-11-13T06:25:41.889Z,141.70
2022-11-13T06:28:28.007Z,141.67
2022-11-13T06:31:16.942Z,240.13
2022-11-13T06:34:02.850Z,194.10
2022-11-13T06:36:49.486Z,145.97
2022-11-13T06:39:36.014Z,134.77
2022-11-13T06:42:22.468Z,120.53
2022-11-13T06:45:09.087Z,129.23
2022-11-13T06:47:55.870Z,149.63
2022-11-13T06:50:47.172Z,123.85
2022-11-13T06:53:38.519Z,129.32
2022-11-13T06:56:24.984Z,111.97
2022-11-13T06:59:11.189Z,103.68
2022-11-13T07:01:57.284Z,94.18
2022-11-13T07:04:43.682Z,94.95
2022-11-13T07:07:29.841Z,99.82
2022-11-13T07:10:17.035Z,99.00
2022-11-13T07:13:03.010Z,105.45
2022-11-13T07:15:52.256Z,80.32
2022-11-13T07:18:38.281Z,79.88
2022-11-13T07:21:25.570Z,81.55
2022-11-13T07:24:16.744Z,83.82
2022-11-13T07:27:03.841Z,91.78
2022-11-13T07:29:49.926Z,82.65
2022-11-13T07:32:36.653Z,78.25
2022-11-13T07:35:22.566Z,80.18
2022-11-13T07:38:09.494Z,78.32
2022-11-13T07:40:55.689Z,92.63
2022-11-13T07:43:42.069Z,84.15
2022-11-13T07:46:27.910Z,78.65
2022-11-13T07:49:14.377Z,87.97
2022-11-13T07:52:00.478Z,94.07
2022-11-13T07:54:47.028Z,98.55
2022-11-13T07:57:33.360Z,88.38
2022-11-13T08:00:19.877Z,88.43
2022-11-13T08:03:06.830Z,90.97
2022-11-13T08:05:55.185Z,89.72
2022-11-13T08:08:41.546Z,76.70
2022-11-13T08:11:28.102Z,70.35
2022-11-13T08:14:14.253Z,74.57
2022-11-13T08:17:00.699Z,72.78
2022-11-13T08:19:46.521Z,66.55
2022-11-13T08:22:33.047Z,62.65
2022-11-13T08:25:19.600Z,58.78
2022-11-13T08:28:10.097Z,57.00
2022-11-13T08:30:59.237Z,58.50
2022-11-13T08:33:45.541Z,60.17
2022-11-13T08:36:31.890Z,56.55
2022-11-13T08:39:18.469Z,57.42
2022-11-13T08:42:05.337Z,51.60
2022-11-13T08:44:51.812Z,63.38
2022-11-13T08:47:38.407Z,57.10
2022-11-13T08:50:24.640Z,54.80
2022-11-13T08:53:10.869Z,54.10
2022-11-13T08:56:00.322Z,53.72
2022-11-13T08:58:46.182Z,57.90
2022-11-13T09:01:32.866Z,61.03
2022-11-13T09:04:19.016Z,65.30
2022-11-13T09:07:05.344Z,59.30
2022-11-13T09:09:51.802Z,53.20
2022-11-13T09:12:38.303Z,52.28
2022-11-13T09:15:24.778Z,50.83
2022-11-13T09:18:11.818Z,50.15
2022-11-13T09:21:01.827Z,50.72
2022-11-13T09:23:48.141Z,51.95
2022-11-13T09:26:35.576Z,53.95
2022-11-13T09:29:23.396Z,49.65
2022-11-13T09:32:09.430Z,51.63
2022-11-13T09:34:55.841Z,51.65
2022-11-13T09:37:42.379Z,49.22
2022-11-13T09:40:31.036Z,45.92
2022-11-13T09:43:36.373Z,44.53
2022-11-13T09:46:37.626Z,44.67
2022-11-13T09:49:29.338Z,42.90
2022-11-13T09:52:24.110Z,44.58
2022-11-13T09:55:14.247Z,46.75
2022-11-13T09:58:07.778Z,70.13
2022-11-13T10:00:53.983Z,46.88
2022-11-13T10:04:03.300Z,48.13
2022-11-13T10:07:12.619Z,45.72
2022-11-13T10:09:59.256Z,49.17
2022-11-13T10:12:47.766Z,47.38
2022-11-13T10:15:34.622Z,46.72
2022-11-13T10:18:27.247Z,49.88
2022-11-13T10:21:34.359Z,48.00
2022-11-13T10:24:28.298Z,47.67
2022-11-13T10:27:16.200Z,49.88
2022-11-13T10:30:02.791Z,46.53
2022-11-13T10:32:49.554Z,52.22
2022-11-13T10:35:39.005Z,48.85
2022-11-13T10:38:28.942Z,44.25
2022-11-13T10:41:17.138Z,44.72
2022-11-13T10:44:26.780Z,46.50
2022-11-13T10:47:26.401Z,52.60
2022-11-13T10:50:27.593Z,54.28
2022-11-13T10:53:15.481Z,55.10
2022-11-13T10:56:03.022Z,57.80
2022-11-13T10:59:10.548Z,57.63
2022-11-13T11:01:56.866Z,61.08
2022-11-13T11:04:43.310Z,55.70
2022-11-13T11:07:30.025Z,55.40
2022-11-13T11:10:25.133Z,56.83
2022-11-13T11:13:12.854Z,54.47
2022-11-13T11:16:00.412Z,51.90
2022-11-13T11:18:49.864Z,45.13
2022-11-13T11:21:37.214Z,48.40
2022-11-13T11:24:28.887Z,51.47
2022-11-13T11:27:14.736Z,48.88
2022-11-13T11:30:07.592Z,54.85
2022-11-13T11:33:01.487Z,55.65
2022-11-13T11:35:53.471Z,52.70
2022-11-13T11:38:47.881Z,57.10
2022-11-13T11:41:51.640Z,62.10
2022-11-13T11:44:46.951Z,64.72
2022-11-13T11:47:34.129Z,58.33
2022-11-13T11:50:29.663Z,63.20
2022-11-13T11:53:18.758Z,61.00
2022-11-13T11:56:06.149Z,65.82
2022-11-13T11:58:59.346Z,60.95
2022-11-13T12:01:58.372Z,59.78
2022-11-13T12:04:51.607Z,56.72
2022-11-13T12:07:56.958Z,56.25
2022-11-13T12:10:59.615Z,64.22
2022-11-13T12:14:06.905Z,56.85
2022-11-13T12:17:19.585Z,57.80
2022-11-13T12:20:08.822Z,60.15
2022-11-13T12:23:24.957Z,65.15
2022-11-13T12:26:16.534Z,64.95
2022-11-13T12:29:05.835Z,68.97
2022-11-13T12:32:24.891Z,62.92
2022-11-13T12:35:17.154Z,61.08
2022-11-13T12:38:03.065Z,74.35
2022-11-13T12:40:59.527Z,64.88
2022-11-13T12:43:51.682Z,69.20
2022-11-13T12:46:39.885Z,72.20
2022-11-13T12:49:30.235Z,73.35
2022-11-13T12:52:16.654Z,76.20
2022-11-13T12:55:08.110Z,73.15
2022-11-13T12:57:54.302Z,71.28
2022-11-13T13:00:42.041Z,77.38
2022-11-13T13:03:34.580Z,66.22
2022-11-13T13:06:43.864Z,58.38
2022-11-13T13:09:40.017Z,71.65
2022-11-13T13:12:35.254Z,62.30
2022-11-13T13:15:24.823Z,59.50
2022-11-13T13:18:13.242Z,57.83
2022-11-13T13:21:03.200Z,67.90
2022-11-13T13:23:50.531Z,64.13
2022-11-13T13:26:45.881Z,55.33
2022-11-13T13:29:34.161Z,49.90
2022-11-13T13:32:41.637Z,56.38
2022-11-13T13:35:35.317Z,53.80
2022-11-13T13:38:27.821Z,56.88
2022-11-13T13:41:23.875Z,55.72
2022-11-13T13:44:17.460Z,58.75
2022-11-13T13:47:06.367Z,50.50
2022-11-13T13:49:52.811Z,49.45
2022-11-13T13:52:38.960Z,59.28
2022-11-13T13:55:33.459Z,69.22
2022-11-13T13:58:23.907Z,62.00
2022-11-13T14:01:18.918Z,64.05
2022-11-13T14:04:07.248Z,72.97
2022-11-13T14:06:54.867Z,66.32
2022-11-13T14:09:41.369Z,68.72
2022-11-13T14:12:27.956Z,62.00
2022-11-13T14:15:23.243Z,63.17
2022-11-13T14:18:14.364Z,61.30
2022-11-13T14:21:02.026Z,64.13
2022-11-13T14:23:49.882Z,63.03
2022-11-13T14:26:36.213Z,66.00
2022-11-13T14:29:30.399Z,65.20
2022-11-13T14:32:16.531Z,81.43
2022-11-13T14:35:04.019Z,79.50
2022-11-13T14:37:52.317Z,181.98
2022-11-13T14:40:38.587Z,357.33
2022-11-13T14:43:26.825Z,285.60
2022-11-13T14:46:26.595Z,221.52
2022-11-13T14:49:15.549Z,367.83
2022-11-13T14:52:02.367Z,241.63
2022-11-13T14:55:13.688Z,353.00
2022-11-13T14:57:55.248Z,404.02
2022-11-13T15:00:41.403Z,426.42
2022-11-13T15:03:28.571Z,405.55
2022-11-13T15:06:17.036Z,314.27
2022-11-13T15:09:03.765Z,200.32
2022-11-13T15:11:50.165Z,327.52
2022-11-13T15:14:42.811Z,232.77
2022-11-13T15:17:28.874Z,195.98
2022-11-13T15:20:21.012Z,201.10
2022-11-13T15:23:10.928Z,234.25
2022-11-13T15:25:57.660Z,235.57
2022-11-13T15:28:44.287Z,235.98
2022-11-13T15:31:32.545Z,250.60
2022-11-13T15:34:18.619Z,313.92
2022-11-13T15:37:10.866Z,276.30
2022-11-13T15:39:56.920Z,226.23
2022-11-13T15:42:43.806Z,244.63
2022-11-13T15:45:29.939Z,322.42
2022-11-13T15:48:16.566Z,267.40
2022-11-13T15:51:02.663Z,333.85
2022-11-13T15:54:23.806Z,332.05
2022-11-13T15:57:17.491Z,412.23
2022-11-13T16:00:04.093Z,363.90
2022-11-13T16:02:51.770Z,346.58
2022-11-13T16:05:38.412Z,324.80
2022-11-13T16:08:24.703Z,320.08
2022-11-13T16:11:14.891Z,289.13
2022-11-13T16:14:01.142Z,267.60
2022-11-13T16:16:48.111Z,267.70
2022-11-13T16:19:34.270Z,325.33
2022-11-13T16:22:22.444Z,401.95
2022-11-13T16:25:13.867Z,307.80
2022-11-13T16:28:00.233Z,289.90
2022-11-13T16:30:47.206Z,396.15
2022-11-13T16:33:33.737Z,741.28
2022-11-13T16:36:20.438Z,393.02
2022-11-13T16:39:13.001Z,327.08
2022-11-13T16:41:58.992Z,498.08
2022-11-13T16:44:45.529Z,443.02
2022-11-13T16:47:32.747Z,336.00
2022-11-13T16:50:24.731Z,438.65
2022-11-13T16:53:12.036Z,461.23
2022-11-13T16:55:58.718Z,355.17
2022-11-13T16:58:44.685Z,315.75
2022-11-13T17:01:31.263Z,490.95
2022-11-13T17:04:17.584Z,441.40
2022-11-13T17:07:04.010Z,656.22
2022-11-13T17:10:10.022Z,424.02
2022-11-13T17:12:56.971Z,587.80
2022-11-13T17:15:42.805Z,448.55
2022-11-13T17:18:29.269Z,498.38
2022-11-13T17:21:15.222Z,421.80
2022-11-13T17:24:02.810Z,545.38
2022-11-13T17:26:49.165Z,768.05
2022-11-13T17:29:35.667Z,547.33
2022-11-13T17:32:21.778Z,620.42
2022-11-13T17:35:08.546Z,526.50
2022-11-13T17:37:55.654Z,454.58
2022-11-13T17:40:41.826Z,336.35
2022-11-13T17:43:28.225Z,587.85
2022-11-13T17:46:15.903Z,687.47
2022-11-13T17:49:02.214Z,758.90
2022-11-13T17:51:49.002Z,829.33
2022-11-13T17:54:35.059Z,652.45
2022-11-13T17:57:26.549Z,664.78
2022-11-13T18:00:13.177Z,532.45
2022-11-13T18:02:59.707Z,433.95
2022-11-13T18:05:46.346Z,589.15
2022-11-13T18:08:33.350Z,593.75
2022-11-13T18:11:23.881Z,913.58
2022-11-13T18:14:10.134Z,443.23
2022-11-13T18:16:56.560Z,594.88
2022-11-13T18:19:42.985Z,506.45
2022-11-13T18:22:29.296Z,596.78
2022-11-13T18:25:15.821Z,620.63
2022-11-13T18:28:01.811Z,548.22
2022-11-13T18:30:53.466Z,286.63
2022-11-13T18:33:42.620Z,783.47
2022-11-13T18:36:34.754Z,704.33
2022-11-13T18:39:21.279Z,496.00
2022-11-13T18:42:07.620Z,564.33
2022-11-13T18:44:53.474Z,446.27
2022-11-13T18:47:40.123Z,395.70
2022-11-13T18:50:27.692Z,681.80
2022-11-13T18:53:14.231Z,507.38
2022-11-13T18:56:01.383Z,850.03
2022-11-13T18:58:48.878Z,650.55
2022-11-13T19:01:37.465Z,650.50
2022-11-13T19:04:24.837Z,622.87
2022-11-13T19:07:12.422Z,680.63
2022-11-13T19:09:59.502Z,546.00
2022-11-13T19:12:45.798Z,781.15
2022-11-13T19:15:32.767Z,749.45
2022-11-13T19:18:18.802Z,871.28
2022-11-13T19:21:10.106Z,671.85
2022-11-13T19:23:56.813Z,767.95
2022-11-13T19:26:44.047Z,476.05
2022-11-13T19:29:30.209Z,511.73
2022-11-13T19:32:17.047Z,945.28
2022-11-13T19:35:03.069Z,734.03
2022-11-13T19:37:49.543Z,853.67
2022-11-13T19:40:35.467Z,727.22
2022-11-13T19:43:21.934Z,1153.60
2022-11-13T19:46:09.691Z,586.97
2022-11-13T19:48:56.273Z,602.60
2022-11-13T19:51:42.175Z,910.65
2022-11-13T19:54:28.598Z,508.90
2022-11-13T19:57:14.862Z,724.60
2022-11-13T20:00:01.620Z,619.22
2022-11-13T20:02:47.855Z,560.23
2022-11-13T20:05:34.355Z,604.63
2022-11-13T20:08:24.131Z,651.17
2022-11-13T20:11:15.112Z,1027.45
2022-11-13T20:14:01.644Z,640.15
2022-11-13T20:16:47.746Z,570.40
2022-11-13T20:19:34.046Z,840.33
2022-11-13T20:22:20.675Z,762.40
2022-11-13T20:25:06.942Z,452.83
2022-11-13T20:27:53.474Z,554.42
2022-11-13T20:30:39.815Z,540.30
2022-11-13T20:33:26.579Z,407.00
2022-11-13T20:36:13.516Z,422.23
2022-11-13T20:38:59.922Z,702.07
2022-11-13T20:41:46.447Z,642.87
2022-11-13T20:44:32.898Z,587.90
2022-11-13T20:47:18.877Z,677.80
2022-11-13T20:50:05.538Z,1136.47
2022-11-13T20:52:51.853Z,556.55
2022-11-13T20:55:38.803Z,347.40
2022-11-13T20:58:24.993Z,505.13
2022-11-13T21:01:15.465Z,585.20
2022-11-13T21:04:01.629Z,619.50
2022-11-13T21:06:48.339Z,616.10
2022-11-13T21:09:34.836Z,498.27
2022-11-13T21:12:21.290Z,728.23
2022-11-13T21:15:07.554Z,624.83
2022-11-13T21:17:54.512Z,730.13
2022-11-13T21:20:40.701Z,728.50
2022-11-13T21:23:29.692Z,809.00
2022-11-13T21:26:16.649Z,664.57
2022-11-13T21:29:03.007Z,1135.77
2022-11-13T21:31:49.036Z,691.13
2022-11-13T21:34:35.718Z,879.23
2022-11-13T21:37:21.685Z,664.43
2022-11-13T21:40:08.433Z,609.40
2022-11-13T21:42:56.755Z,820.13
2022-11-13T21:45:43.424Z,659.47
2022-11-13T21:48:33.173Z,630.53
2022-11-13T21:51:20.086Z,700.93
2022-11-13T21:54:07.520Z,608.80
2022-11-13T21:56:54.079Z,510.37
2022-11-13T21:59:40.389Z,532.93
2022-11-13T22:02:27.504Z,653.87
2022-11-13T22:05:13.618Z,602.30
2022-11-13T22:08:00.187Z,559.63
2022-11-13T22:10:46.473Z,552.53
2022-11-13T22:13:33.018Z,597.53
2022-11-13T22:16:19.388Z,638.73
2022-11-13T22:19:07.246Z,665.53
2022-11-13T22:21:54.073Z,560.93
2022-11-13T22:24:40.614Z,586.53
2022-11-13T22:27:26.943Z,574.37
2022-11-13T22:30:13.399Z,657.77
2022-11-13T22:32:59.869Z,483.50
2022-11-13T22:35:46.471Z,541.53
2022-11-13T22:38:33.811Z,645.37
2022-11-13T22:41:24.391Z,780.43
2022-11-13T22:44:13.081Z,613.00
2022-11-13T22:46:59.953Z,673.07
2022-11-13T22:49:45.931Z,861.03
2022-11-13T22:52:32.528Z,554.30
2022-11-13T22:55:18.473Z,675.80
2022-11-13T22:58:05.010Z,600.20
2022-11-13T23:00:51.040Z,545.23
2022-11-13T23:03:38.286Z,495.50
2022-11-13T23:06:25.954Z,821.83
2022-11-13T23:09:12.576Z,512.73
2022-11-13T23:11:58.721Z,526.17
2022-11-13T23:14:45.115Z,671.60
2022-11-13T23:17:31.374Z,491.40
2022-11-13T23:20:17.854Z,671.87
2022-11-13T23:23:03.742Z,522.77
2022-11-13T23:25:50.181Z,641.43
2022-11-13T23:28:37.039Z,512.83
2022-11-13T23:31:23.685Z,503.50
2022-11-13T23:34:10.264Z,538.97
2022-11-13T23:36:56.768Z,577.50
2022-11-13T23:39:42.716Z,447.27
2022-11-13T23:42:46.066Z,522.63
2022-11-13T23:45:35.395Z,462.13
2022-11-13T23:48:21.934Z,620.83
2022-11-13T23:51:08.256Z,456.63
2022-11-13T23:53:54.674Z,447.60
2022-11-13T23:56:40.749Z,477.57
2022-11-13T23:59:27.299Z,409.83
